Norfolk, Virginia
Traffic Map
Current Weather Conditions
Norfolk, Virginia
Clear
Clear
69°
Feels Like: 69°
Wind Chill: 69° Ceiling: Unl
Heat Index: 69° Visibility: 10mi
Dew Point: 30° Wind: 18mph
Humidity: 23% Direction: 190° (S)
Pressure: 29.83in Gusts: 25mph
Raw Report DataKORF 311751Z AUTO 19016G22KT 10SM CLR 21/M01 A2983 RMK AO2 SLP099 T02061011 10206 20056 58045 TSNO
Traffic Incident Summary
Active as of:
Severity:
Category:
InformationThere was an issue retrieving the traffic information for this location. Please try a different location or try again shortly.
Advertisements
Track Severe Weather on mobile